Tecumseh — WTW9257 — position and weather

sailwx.info

Track history (hours):
 
Tides and Currents Weather Stations Pressure Air Temp Water Temp Dewpoint Dewpoint Depression Visibility Wind Speed Wind Dir Waves Ship Positions

Tecumseh

Owner: SAUSE BROS INC, COOS BAY, OR. More information available from US FCC via Universal Licensing System and Coast Guard Vessel Documentation Center.

Last reported at 2014-Oct-24 20:33 UTC. Time now 2014-Oct-24 20:36 UTC.
Position N 47°50' W 122°28'.

Length 90 m; draft 4.9 m.

Type: Tow > 200 m length. MMSI: 367133160.

Date/timePositionNaut miles runAvg speedWind from/ knotsBaromVisibWave heightAir tempDewpointWater temp
2014-Oct-24 20:33N 47°50' W 122°28'3 6.8
2014-Oct-24 20:10N 47°53' W 122°29'4 6.5
2014-Oct-24 19:33N 47°56' W 122°32'0 6.0
2014-Oct-24 19:30N 47°56' W 122°33'6 5.9
2014-Oct-24 18:33N 48°01' W 122°38'15 4.7
2014-Oct-24 15:17N 48°14' W 122°49'11 6.4
2014-Oct-24 13:30N 48°25' W 122°45'5 5.2
2014-Oct-24 12:33N 48°30' W 122°45'4 3.8
2014-Oct-24 11:33N 48°34' W 122°45'3 3.2
2014-Oct-24 10:33N 48°37' W 122°45'5 4.6
2014-Oct-24 09:33N 48°42' W 122°44'8 6.1
2014-Oct-24 08:10N 48°47' W 122°54'4 7.1
2014-Oct-24 07:33N 48°50' W 122°59'7 7.2
2014-Oct-24 06:33N 48°53' W 123°09'8 7.6
2014-Oct-24 05:33N 48°59' W 123°17'8 7.6
2014-Oct-24 04:33N 49°05' W 123°24'7 7.4
2014-Oct-24 03:33N 49°12' W 123°22'7 6.7
2014-Oct-24 02:33N 49°18' W 123°18'4 3.5
2014-Oct-24 01:33N 49°20' W 123°13'6 6.5
2014-Oct-24 00:33N 49°18' W 123°04'5 4.6
2014-Oct-23 23:33N 49°17' W 122°57'0 0.0
2014-Oct-23 22:33N 49°17' W 122°57'0 0.0
2014-Oct-23 21:33N 49°17' W 122°57'0 0.0
2014-Oct-23 20:30N 49°17' W 122°57'0 0.0
2014-Oct-23 19:33N 49°17' W 122°57'0 0.0
2014-Oct-23 18:33N 49°17' W 122°57'0 0.0
2014-Oct-23 17:06N 49°17' W 122°57'0 0.0
2014-Oct-23 15:27N 49°17' W 122°57'0 0.0
2014-Oct-23 14:33N 49°17' W 122°57'0 0.0
2014-Oct-23 13:33N 49°17' W 122°57'0 0.1
2014-Oct-23 12:34N 49°18' W 122°57'0 0.4
2014-Oct-23 11:33N 49°18' W 122°58'0 0.0
2014-Oct-23 10:29N 49°18' W 122°58'0 0.0
2014-Oct-23 09:32N 49°18' W 122°58'0 0.0
2014-Oct-23 08:32N 49°18' W 122°58'0 0.0
2014-Oct-23 07:32N 49°18' W 122°58'0 0.0
2014-Oct-23 06:32N 49°18' W 122°58'0 0.0
2014-Oct-23 05:32N 49°18' W 122°58'0 0.0
2014-Oct-23 04:32N 49°18' W 122°58'0 0.0
2014-Oct-23 03:32N 49°18' W 122°58'0 0.0
2014-Oct-23 02:32N 49°18' W 122°58'0 0.0
2014-Oct-23 01:32N 49°18' W 122°58'0 0.0
2014-Oct-23 00:32N 49°18' W 122°58'0 0.0
2014-Oct-22 23:32N 49°18' W 122°58'0 0.0
2014-Oct-22 22:32N 49°18' W 122°58'0 0.0
2014-Oct-22 21:32N 49°18' W 122°58'0 0.0
2014-Oct-22 20:32N 49°18' W 122°58'0 0.0
2014-Oct-22 19:32N 49°18' W 122°58'0 0.0
2014-Oct-22 18:32N 49°18' W 122°58'0 0.0
2014-Oct-22 17:32N 49°18' W 122°58'0 0.0
2014-Oct-22 16:32N 49°18' W 122°58'0 0.0
2014-Oct-22 15:32N 49°18' W 122°58'0 0.0
2014-Oct-22 14:32N 49°18' W 122°58'0 0.3
2014-Oct-22 13:34N 49°18' W 122°58'4 4.4
2014-Oct-22 12:33N 49°18' W 123°05'5 4.6
2014-Oct-22 11:33N 49°19' W 123°12'5 4.5
2014-Oct-22 10:34N 49°17' W 123°18'5 4.9
2014-Oct-22 09:34N 49°12' W 123°20'5 5.0
2014-Oct-22 08:34N 49°07' W 123°21'5 4.5
2014-Oct-22 07:34N 49°03' W 123°18'5 5.1
2014-Oct-22 06:32N 48°59' W 123°12'5 4.9
2014-Oct-22 05:33N 48°56' W 123°06'5 4.8
2014-Oct-22 04:33N 48°53' W 123°01'5 4.6
2014-Oct-22 03:33N 48°50' W 122°55'5 4.6
2014-Oct-22 02:31N 48°47' W 122°50'4 4.1
2014-Oct-22 01:32N 48°45' W 122°45'6 6.0
2014-Oct-22 00:34N 48°39' W 122°43'8 8.4
2014-Oct-21 23:33N 48°30' W 122°44'9 9.0
2014-Oct-21 22:33N 48°21' W 122°45'9 8.5
2014-Oct-21 21:33N 48°13' W 122°48'6 6.1
2014-Oct-21 20:29N 48°08' W 122°42'6 6.7
2014-Oct-21 19:33N 48°03' W 122°38'7 7.3
2014-Oct-21 18:36N 47°57' W 122°32'0 7.8
2014-Oct-21 18:33N 47°57' W 122°32'0 7.6
2014-Oct-21 18:31N 47°57' W 122°31'8 8.2
2014-Oct-21 17:33N 47°49' W 122°27'0 8.3
2014-Oct-21 17:31N 47°49' W 122°27'8 8.7
2014-Oct-21 16:33N 47°41' W 122°27'0 9.1
2014-Oct-21 16:31N 47°40' W 122°27'8 8.7
2014-Oct-21 15:34N 47°32' W 122°25'0 8.9
2014-Oct-21 15:31N 47°32' W 122°25'8 8.5
2014-Oct-21 14:33N 47°24' W 122°21'2 7.6
2014-Oct-21 14:20N 47°22' W 122°21'6 7.7
2014-Oct-21 13:33N 47°18' W 122°27'3 2.4
2014-Oct-21 12:24N 47°16' W 122°24'0 0.4
2014-Oct-21 11:33N 47°16' W 122°24'1 1.3
2014-Oct-21 10:32N 47°16' W 122°26'0 0.0
2014-Oct-21 09:32N 47°16' W 122°26'0 0.0
2014-Oct-21 08:32N 47°16' W 122°26'0 0.0
2014-Oct-21 07:32N 47°16' W 122°26'0 0.0
2014-Oct-21 06:32N 47°16' W 122°26'0 0.0
2014-Oct-21 05:32N 47°16' W 122°26'0 0.0
2014-Oct-21 04:32N 47°16' W 122°26'0 0.0
2014-Oct-21 03:32N 47°16' W 122°26'0 0.0
2014-Oct-21 02:29N 47°16' W 122°26'0 0.0
2014-Oct-21 01:32N 47°16' W 122°26'1 1.3
2014-Oct-21 00:33N 47°17' W 122°25'1 0.7
2014-Oct-20 23:12N 47°16' W 122°24'1 2.2
2014-Oct-20 22:33N 47°17' W 122°25'1 2.5
2014-Oct-20 22:07N 47°18' W 122°27'3 5.7
2014-Oct-20 21:33N 47°21' W 122°26'6 5.9
2014-Oct-20 20:33N 47°27' W 122°25'6 7.4
2014-Oct-20 19:48N 47°32' W 122°27'2 7.5
2014-Oct-20 19:33N 47°34' W 122°27'1 7.2
2014-Oct-20 19:29N 47°34' W 122°27'7 7.1
2014-Oct-20 18:33N 47°41' W 122°28'1 6.8
2014-Oct-20 18:28N 47°42' W 122°28'6 6.9
2014-Oct-20 17:33N 47°48' W 122°27'7 6.7
2014-Oct-20 16:33N 47°54' W 122°30'6 5.8
2014-Oct-20 15:33N 47°58' W 122°36'7 5.2
2014-Oct-20 14:10N 48°05' W 122°40'13 5.0
2014-Oct-20 11:30N 48°17' W 122°48'7 6.8
2014-Oct-20 10:31N 48°24' W 122°45'6 6.4
2014-Oct-20 09:33N 48°30' W 122°44'6 6.0
2014-Oct-20 08:33N 48°36' W 122°45'6 6.3
2014-Oct-20 07:33N 48°42' W 122°45'8 6.9
2014-Oct-20 06:20N 48°48' W 122°54'6 7.9
2014-Oct-20 05:32N 48°51' W 123°03'8 7.9
2014-Oct-20 04:33N 48°56' W 123°11'8 7.8
2014-Oct-20 03:33N 49°01' W 123°20'7 7.1
2014-Oct-20 02:33N 49°08' W 123°23'8 7.7
2014-Oct-20 01:33N 49°16' W 123°21'7 6.9
2014-Oct-20 00:33N 49°20' W 123°12'4 4.3
2014-Oct-19 23:33N 49°18' W 123°06'6 5.7
2014-Oct-19 22:33N 49°18' W 122°57'0 0.2
2014-Oct-19 21:32N 49°17' W 122°57'0 0.0
2014-Oct-19 20:32N 49°17' W 122°57'0 0.0
2014-Oct-19 19:32N 49°17' W 122°57'0 0.0
2014-Oct-19 18:32N 49°17' W 122°57'0 0.0
2014-Oct-19 17:32N 49°17' W 122°57'0 0.0
2014-Oct-19 16:32N 49°17' W 122°57'0 0.0
2014-Oct-19 15:32N 49°17' W 122°57'0 0.0
2014-Oct-19 14:32N 49°17' W 122°57'0 0.0
2014-Oct-19 13:32N 49°17' W 122°57'0 0.0
2014-Oct-19 12:32N 49°17' W 122°57'0 0.0
2014-Oct-19 11:32N 49°17' W 122°57'0 0.1
2014-Oct-19 10:34N 49°18' W 122°57'5 5.3
2014-Oct-19 09:33N 49°18' W 123°05'7 6.8
2014-Oct-19 08:33N 49°18' W 123°16'8 7.9
2014-Oct-19 07:33N 49°11' W 123°19'8 7.6
2014-Oct-19 06:33N 49°03' W 123°19'9 8.6
2014-Oct-19 05:33N 48°57' W 123°10'8 8.4
2014-Oct-19 04:33N 48°52' W 122°59'8 8.0
2014-Oct-19 03:33N 48°47' W 122°50'7 7.5
2014-Oct-19 02:33N 48°41' W 122°43'7 6.8
2014-Oct-19 01:33N 48°35' W 122°45'0 6.4
2014-Oct-19 01:29N 48°34' W 122°45'7 7.0
2014-Oct-19 00:33N 48°28' W 122°44'8 8.2
2014-Oct-18 23:33N 48°20' W 122°46'11 7.6
2014-Oct-18 22:04N 48°09' W 122°42'6 8.3
2014-Oct-18 21:18N 48°03' W 122°38'6 7.9
2014-Oct-18 20:34N 47°58' W 122°34'011.1
2014-Oct-18 20:33N 47°58' W 122°33'1 8.8
2014-Oct-18 20:24N 47°57' W 122°32'7 8.0
2014-Oct-18 19:33N 47°51' W 122°27'1 8.6
2014-Oct-18 19:24N 47°49' W 122°27'7 8.6
2014-Oct-18 18:33N 47°42' W 122°27'1 8.4
2014-Oct-18 18:28N 47°42' W 122°27'8 8.4
2014-Oct-18 17:33N 47°34' W 122°26'1 8.1
2014-Oct-18 17:28N 47°33' W 122°26'8 8.4
2014-Oct-18 16:33N 47°26' W 122°23'2 8.2
2014-Oct-18 16:18N 47°24' W 122°21'6 7.7
2014-Oct-18 15:33N 47°19' W 122°26'4 1.8
2014-Oct-18 13:33N 47°16' W 122°24'1 1.5
2014-Oct-18 12:33N 47°16' W 122°26'0 0.0
2014-Oct-18 11:33N 47°16' W 122°26'0 0.0
2014-Oct-18 10:33N 47°16' W 122°26'0 0.0
2014-Oct-18 09:33N 47°16' W 122°26'0 0.0
2014-Oct-18 08:09N 47°16' W 122°26'0 0.0
2014-Oct-18 05:33N 47°16' W 122°26'0 0.0
2014-Oct-18 04:33N 47°16' W 122°26'1 1.4
2014-Oct-18 03:30N 47°16' W 122°24'1 1.1
2014-Oct-18 02:33N 47°17' W 122°25'3 2.8
2014-Oct-18 01:33N 47°19' W 122°27'6 6.2
2014-Oct-18 00:33N 47°24' W 122°23'3 6.8
2014-Oct-18 00:06N 47°27' W 122°25'4 6.6
2014-Oct-17 23:33N 47°30' W 122°26'0 6.0
2014-Oct-17 23:31N 47°31' W 122°26'6 6.6
2014-Oct-17 22:33N 47°37' W 122°28'0 6.1
2014-Oct-17 22:32N 47°37' W 122°28'6 6.5
2014-Oct-17 21:33N 47°43' W 122°28'0 6.1
2014-Oct-17 21:31N 47°44' W 122°28'6 6.6
2014-Oct-17 20:33N 47°50' W 122°28'0 6.8
2014-Oct-17 20:31N 47°50' W 122°28'7 7.2
2014-Oct-17 19:33N 47°56' W 122°33'8 7.7
2014-Oct-17 18:31N 48°03' W 122°39'9 8.1
2014-Oct-17 17:22N 48°11' W 122°47'8 6.8
2014-Oct-17 16:11N 48°19' W 122°47'4 7.0
2014-Oct-17 15:33N 48°23' W 122°45'7 7.0
2014-Oct-17 14:33N 48°30' W 122°45'7 7.4
2014-Oct-17 13:33N 48°37' W 122°45'7 7.0
2014-Oct-17 12:33N 48°44' W 122°47'7 7.2
2014-Oct-17 11:33N 48°48' W 122°56'8 7.4
2014-Oct-17 10:31N 48°53' W 123°05'7 7.2
2014-Oct-17 09:33N 48°57' W 123°13'7 7.0
2014-Oct-17 08:33N 49°02' W 123°21'6 6.1
2014-Oct-17 07:33N 49°08' W 123°24'7 7.0
2014-Oct-17 06:33N 49°15' W 123°21'6 6.5
2014-Oct-17 05:33N 49°19' W 123°14'7 6.9
2014-Oct-17 04:33N 49°18' W 123°04'4 3.5
2014-Oct-17 03:33N 49°18' W 122°58'0 0.0
2014-Oct-17 02:33N 49°18' W 122°58'0 0.0
2014-Oct-17 01:30N 49°18' W 122°58'0 0.0
2014-Oct-17 00:30N 49°18' W 122°58'1 0.8
2014-Oct-16 23:33N 49°17' W 122°57'0 0.0
2014-Oct-16 22:33N 49°17' W 122°57'0 0.0
2014-Oct-16 21:33N 49°17' W 122°57'0 0.0
2014-Oct-16 20:33N 49°17' W 122°57'0 0.0
2014-Oct-16 19:33N 49°17' W 122°57'0 0.0
2014-Oct-16 18:33N 49°17' W 122°57'0 0.0
2014-Oct-16 17:33N 49°17' W 122°57'0 0.0
2014-Oct-16 16:33N 49°17' W 122°57'0 0.0
2014-Oct-16 15:33N 49°17' W 122°57'0 0.0
2014-Oct-16 14:30N 49°17' W 122°57'0 0.0
2014-Oct-16 13:30N 49°17' W 122°57'0 0.0
2014-Oct-16 12:33N 49°17' W 122°57'0 0.0
2014-Oct-16 11:30N 49°17' W 122°57'0 0.0
2014-Oct-16 10:33N 49°17' W 122°57'0 0.0
2014-Oct-16 09:33N 49°17' W 122°57'0 0.0
2014-Oct-16 08:33N 49°17' W 122°57'0 0.0
2014-Oct-16 07:30N 49°17' W 122°57'0 0.1
2014-Oct-16 06:34N 49°18' W 122°57'6 5.6
2014-Oct-16 05:33N 49°18' W 123°06'6 6.1
2014-Oct-16 04:33N 49°18' W 123°15'6 5.6
2014-Oct-16 03:33N 49°13' W 123°19'6 6.2
2014-Oct-16 02:33N 49°07' W 123°20'6 5.8
2014-Oct-16 01:33N 49°02' W 123°17'7 6.6
2014-Oct-16 00:33N 48°58' W 123°09'6 6.5
2014-Oct-15 23:33N 48°53' W 123°02'7 6.6
2014-Oct-15 22:31N 48°47' W 123°01'6 6.6
2014-Oct-15 21:33N 48°43' W 123°09'5 5.3
2014-Oct-15 20:32N 48°39' W 123°14'6 6.5
2014-Oct-15 19:33N 48°33' W 123°12'7 7.0
2014-Oct-15 18:33N 48°26' W 123°10'2 7.7
2014-Oct-15 18:15N 48°24' W 123°10'6 7.0
2014-Oct-15 17:26N 48°18' W 123°12'6 7.0
2014-Oct-15 16:33N 48°13' W 123°18'7 6.9
2014-Oct-15 15:33N 48°08' W 123°25'1 4.2
2014-Oct-15 15:19N 48°08' W 123°26'0 0.1
2014-Oct-15 14:33N 48°08' W 123°26'0 0.0
2014-Oct-15 13:45N 48°08' W 123°26'0 0.0
2014-Oct-15 13:29N 48°08' W 123°26'0 0.0
2014-Oct-15 12:20N 48°08' W 123°26'0 0.0
2014-Oct-15 11:32N 48°08' W 123°26'0 0.0
2014-Oct-15 10:32N 48°08' W 123°26'0 0.0
2014-Oct-15 08:30N 48°08' W 123°26'0 0.0
2014-Oct-15 04:24N 48°08' W 123°26'0 0.0
2014-Oct-15 03:32N 48°08' W 123°26'0 0.0
2014-Oct-15 02:47N 48°08' W 123°26'0 0.0
2014-Oct-15 02:32N 48°08' W 123°26'0 0.0
2014-Oct-15 02:17N 48°08' W 123°26'0 0.0
2014-Oct-15 01:29N 48°08' W 123°26'0 0.0
2014-Oct-15 00:29N 48°08' W 123°26'0 0.0
2014-Oct-14 23:32N 48°08' W 123°26'0 0.0
2014-Oct-14 22:32N 48°08' W 123°26'0 0.0
2014-Oct-14 22:14N 48°08' W 123°26'0 0.0
2014-Oct-14 21:23N 48°08' W 123°26'0 0.0
2014-Oct-14 21:02N 48°08' W 123°26'  
Track history (hours):
 
Tides and Currents Weather Stations Pressure Air Temp Water Temp Dewpoint Dewpoint Depression Visibility Wind Speed Wind Dir Waves Ship Positions

Tecumseh

Owner: SAUSE BROS INC, COOS BAY, OR. More information available from US FCC via Universal Licensing System and Coast Guard Vessel Documentation Center.

Last reported at 2014-Oct-24 20:33 UTC. Time now 2014-Oct-24 20:36 UTC.
Position N 47°50' W 122°28'.

Length 90 m; draft 4.9 m.

Type: Tow > 200 m length. MMSI: 367133160.

Date/timePositionNaut miles runAvg speedWind from/ knotsBaromVisibWave heightAir tempDewpointWater temp
2014-Oct-24 20:33N 47°50' W 122°28'3 6.8
2014-Oct-24 20:10N 47°53' W 122°29'4 6.5
2014-Oct-24 19:33N 47°56' W 122°32'0 6.0
2014-Oct-24 19:30N 47°56' W 122°33'6 5.9
2014-Oct-24 18:33N 48°01' W 122°38'15 4.7
2014-Oct-24 15:17N 48°14' W 122°49'11 6.4
2014-Oct-24 13:30N 48°25' W 122°45'5 5.2
2014-Oct-24 12:33N 48°30' W 122°45'4 3.8
2014-Oct-24 11:33N 48°34' W 122°45'3 3.2
2014-Oct-24 10:33N 48°37' W 122°45'5 4.6
2014-Oct-24 09:33N 48°42' W 122°44'8 6.1
2014-Oct-24 08:10N 48°47' W 122°54'4 7.1
2014-Oct-24 07:33N 48°50' W 122°59'7 7.2
2014-Oct-24 06:33N 48°53' W 123°09'8 7.6
2014-Oct-24 05:33N 48°59' W 123°17'8 7.6
2014-Oct-24 04:33N 49°05' W 123°24'7 7.4
2014-Oct-24 03:33N 49°12' W 123°22'7 6.7
2014-Oct-24 02:33N 49°18' W 123°18'4 3.5
2014-Oct-24 01:33N 49°20' W 123°13'6 6.5
2014-Oct-24 00:33N 49°18' W 123°04'5 4.6
2014-Oct-23 23:33N 49°17' W 122°57'0 0.0
2014-Oct-23 22:33N 49°17' W 122°57'0 0.0
2014-Oct-23 21:33N 49°17' W 122°57'0 0.0
2014-Oct-23 20:30N 49°17' W 122°57'0 0.0
2014-Oct-23 19:33N 49°17' W 122°57'0 0.0
2014-Oct-23 18:33N 49°17' W 122°57'0 0.0
2014-Oct-23 17:06N 49°17' W 122°57'0 0.0
2014-Oct-23 15:27N 49°17' W 122°57'0 0.0
2014-Oct-23 14:33N 49°17' W 122°57'0 0.0
2014-Oct-23 13:33N 49°17' W 122°57'0 0.1
2014-Oct-23 12:34N 49°18' W 122°57'0 0.4
2014-Oct-23 11:33N 49°18' W 122°58'0 0.0
2014-Oct-23 10:29N 49°18' W 122°58'0 0.0
2014-Oct-23 09:32N 49°18' W 122°58'0 0.0
2014-Oct-23 08:32N 49°18' W 122°58'0 0.0
2014-Oct-23 07:32N 49°18' W 122°58'0 0.0
2014-Oct-23 06:32N 49°18' W 122°58'0 0.0
2014-Oct-23 05:32N 49°18' W 122°58'0 0.0
2014-Oct-23 04:32N 49°18' W 122°58'0 0.0
2014-Oct-23 03:32N 49°18' W 122°58'0 0.0
2014-Oct-23 02:32N 49°18' W 122°58'0 0.0
2014-Oct-23 01:32N 49°18' W 122°58'0 0.0
2014-Oct-23 00:32N 49°18' W 122°58'0 0.0
2014-Oct-22 23:32N 49°18' W 122°58'0 0.0
2014-Oct-22 22:32N 49°18' W 122°58'0 0.0
2014-Oct-22 21:32N 49°18' W 122°58'0 0.0
2014-Oct-22 20:32N 49°18' W 122°58'0 0.0
2014-Oct-22 19:32N 49°18' W 122°58'0 0.0
2014-Oct-22 18:32N 49°18' W 122°58'0 0.0
2014-Oct-22 17:32N 49°18' W 122°58'0 0.0
2014-Oct-22 16:32N 49°18' W 122°58'0 0.0
2014-Oct-22 15:32N 49°18' W 122°58'0 0.0
2014-Oct-22 14:32N 49°18' W 122°58'0 0.3
2014-Oct-22 13:34N 49°18' W 122°58'4 4.4
2014-Oct-22 12:33N 49°18' W 123°05'5 4.6
2014-Oct-22 11:33N 49°19' W 123°12'5 4.5
2014-Oct-22 10:34N 49°17' W 123°18'5 4.9
2014-Oct-22 09:34N 49°12' W 123°20'5 5.0
2014-Oct-22 08:34N 49°07' W 123°21'5 4.5
2014-Oct-22 07:34N 49°03' W 123°18'5 5.1
2014-Oct-22 06:32N 48°59' W 123°12'5 4.9
2014-Oct-22 05:33N 48°56' W 123°06'5 4.8
2014-Oct-22 04:33N 48°53' W 123°01'5 4.6
2014-Oct-22 03:33N 48°50' W 122°55'5 4.6
2014-Oct-22 02:31N 48°47' W 122°50'4 4.1
2014-Oct-22 01:32N 48°45' W 122°45'6 6.0
2014-Oct-22 00:34N 48°39' W 122°43'8 8.4
2014-Oct-21 23:33N 48°30' W 122°44'9 9.0
2014-Oct-21 22:33N 48°21' W 122°45'9 8.5
2014-Oct-21 21:33N 48°13' W 122°48'6 6.1
2014-Oct-21 20:29N 48°08' W 122°42'6 6.7
2014-Oct-21 19:33N 48°03' W 122°38'7 7.3
2014-Oct-21 18:36N 47°57' W 122°32'0 7.8
2014-Oct-21 18:33N 47°57' W 122°32'0 7.6
2014-Oct-21 18:31N 47°57' W 122°31'8 8.2
2014-Oct-21 17:33N 47°49' W 122°27'0 8.3
2014-Oct-21 17:31N 47°49' W 122°27'8 8.7
2014-Oct-21 16:33N 47°41' W 122°27'0 9.1
2014-Oct-21 16:31N 47°40' W 122°27'8 8.7
2014-Oct-21 15:34N 47°32' W 122°25'0 8.9
2014-Oct-21 15:31N 47°32' W 122°25'8 8.5
2014-Oct-21 14:33N 47°24' W 122°21'2 7.6
2014-Oct-21 14:20N 47°22' W 122°21'6 7.7
2014-Oct-21 13:33N 47°18' W 122°27'3 2.4
2014-Oct-21 12:24N 47°16' W 122°24'0 0.4
2014-Oct-21 11:33N 47°16' W 122°24'1 1.3
2014-Oct-21 10:32N 47°16' W 122°26'0 0.0
2014-Oct-21 09:32N 47°16' W 122°26'0 0.0
2014-Oct-21 08:32N 47°16' W 122°26'0 0.0
2014-Oct-21 07:32N 47°16' W 122°26'0 0.0
2014-Oct-21 06:32N 47°16' W 122°26'0 0.0
2014-Oct-21 05:32N 47°16' W 122°26'0 0.0
2014-Oct-21 04:32N 47°16' W 122°26'0 0.0
2014-Oct-21 03:32N 47°16' W 122°26'0 0.0
2014-Oct-21 02:29N 47°16' W 122°26'0 0.0
2014-Oct-21 01:32N 47°16' W 122°26'1 1.3
2014-Oct-21 00:33N 47°17' W 122°25'1 0.7
2014-Oct-20 23:12N 47°16' W 122°24'1 2.2
2014-Oct-20 22:33N 47°17' W 122°25'1 2.5
2014-Oct-20 22:07N 47°18' W 122°27'3 5.7
2014-Oct-20 21:33N 47°21' W 122°26'6 5.9
2014-Oct-20 20:33N 47°27' W 122°25'6 7.4
2014-Oct-20 19:48N 47°32' W 122°27'2 7.5
2014-Oct-20 19:33N 47°34' W 122°27'1 7.2
2014-Oct-20 19:29N 47°34' W 122°27'7 7.1
2014-Oct-20 18:33N 47°41' W 122°28'1 6.8
2014-Oct-20 18:28N 47°42' W 122°28'6 6.9
2014-Oct-20 17:33N 47°48' W 122°27'7 6.7
2014-Oct-20 16:33N 47°54' W 122°30'6 5.8
2014-Oct-20 15:33N 47°58' W 122°36'7 5.2
2014-Oct-20 14:10N 48°05' W 122°40'13 5.0
2014-Oct-20 11:30N 48°17' W 122°48'7 6.8
2014-Oct-20 10:31N 48°24' W 122°45'6 6.4
2014-Oct-20 09:33N 48°30' W 122°44'6 6.0
2014-Oct-20 08:33N 48°36' W 122°45'6 6.3
2014-Oct-20 07:33N 48°42' W 122°45'8 6.9
2014-Oct-20 06:20N 48°48' W 122°54'6 7.9
2014-Oct-20 05:32N 48°51' W 123°03'8 7.9
2014-Oct-20 04:33N 48°56' W 123°11'8 7.8
2014-Oct-20 03:33N 49°01' W 123°20'7 7.1
2014-Oct-20 02:33N 49°08' W 123°23'8 7.7
2014-Oct-20 01:33N 49°16' W 123°21'7 6.9
2014-Oct-20 00:33N 49°20' W 123°12'4 4.3
2014-Oct-19 23:33N 49°18' W 123°06'6 5.7
2014-Oct-19 22:33N 49°18' W 122°57'0 0.2
2014-Oct-19 21:32N 49°17' W 122°57'0 0.0
2014-Oct-19 20:32N 49°17' W 122°57'0 0.0
2014-Oct-19 19:32N 49°17' W 122°57'0 0.0
2014-Oct-19 18:32N 49°17' W 122°57'0 0.0
2014-Oct-19 17:32N 49°17' W 122°57'0 0.0
2014-Oct-19 16:32N 49°17' W 122°57'0 0.0
2014-Oct-19 15:32N 49°17' W 122°57'0 0.0
2014-Oct-19 14:32N 49°17' W 122°57'0 0.0
2014-Oct-19 13:32N 49°17' W 122°57'0 0.0
2014-Oct-19 12:32N 49°17' W 122°57'0 0.0
2014-Oct-19 11:32N 49°17' W 122°57'0 0.1
2014-Oct-19 10:34N 49°18' W 122°57'5 5.3
2014-Oct-19 09:33N 49°18' W 123°05'7 6.8
2014-Oct-19 08:33N 49°18' W 123°16'8 7.9
2014-Oct-19 07:33N 49°11' W 123°19'8 7.6
2014-Oct-19 06:33N 49°03' W 123°19'9 8.6
2014-Oct-19 05:33N 48°57' W 123°10'8 8.4
2014-Oct-19 04:33N 48°52' W 122°59'8 8.0
2014-Oct-19 03:33N 48°47' W 122°50'7 7.5
2014-Oct-19 02:33N 48°41' W 122°43'7 6.8
2014-Oct-19 01:33N 48°35' W 122°45'0 6.4
2014-Oct-19 01:29N 48°34' W 122°45'7 7.0
2014-Oct-19 00:33N 48°28' W 122°44'8 8.2
2014-Oct-18 23:33N 48°20' W 122°46'11 7.6
2014-Oct-18 22:04N 48°09' W 122°42'6 8.3
2014-Oct-18 21:18N 48°03' W 122°38'6 7.9
2014-Oct-18 20:34N 47°58' W 122°34'011.1
2014-Oct-18 20:33N 47°58' W 122°33'1 8.8
2014-Oct-18 20:24N 47°57' W 122°32'7 8.0
2014-Oct-18 19:33N 47°51' W 122°27'1 8.6
2014-Oct-18 19:24N 47°49' W 122°27'7 8.6
2014-Oct-18 18:33N 47°42' W 122°27'1 8.4
2014-Oct-18 18:28N 47°42' W 122°27'8 8.4
2014-Oct-18 17:33N 47°34' W 122°26'1 8.1
2014-Oct-18 17:28N 47°33' W 122°26'8 8.4
2014-Oct-18 16:33N 47°26' W 122°23'2 8.2
2014-Oct-18 16:18N 47°24' W 122°21'6 7.7
2014-Oct-18 15:33N 47°19' W 122°26'4 1.8
2014-Oct-18 13:33N 47°16' W 122°24'1 1.5
2014-Oct-18 12:33N 47°16' W 122°26'0 0.0
2014-Oct-18 11:33N 47°16' W 122°26'0 0.0
2014-Oct-18 10:33N 47°16' W 122°26'0 0.0
2014-Oct-18 09:33N 47°16' W 122°26'0 0.0
2014-Oct-18 08:09N 47°16' W 122°26'0 0.0
2014-Oct-18 05:33N 47°16' W 122°26'0 0.0
2014-Oct-18 04:33N 47°16' W 122°26'1 1.4
2014-Oct-18 03:30N 47°16' W 122°24'1 1.1
2014-Oct-18 02:33N 47°17' W 122°25'3 2.8
2014-Oct-18 01:33N 47°19' W 122°27'6 6.2
2014-Oct-18 00:33N 47°24' W 122°23'3 6.8
2014-Oct-18 00:06N 47°27' W 122°25'4 6.6
2014-Oct-17 23:33N 47°30' W 122°26'0 6.0
2014-Oct-17 23:31N 47°31' W 122°26'6 6.6
2014-Oct-17 22:33N 47°37' W 122°28'0 6.1
2014-Oct-17 22:32N 47°37' W 122°28'6 6.5
2014-Oct-17 21:33N 47°43' W 122°28'0 6.1
2014-Oct-17 21:31N 47°44' W 122°28'6 6.6
2014-Oct-17 20:33N 47°50' W 122°28'0 6.8
2014-Oct-17 20:31N 47°50' W 122°28'7 7.2
2014-Oct-17 19:33N 47°56' W 122°33'8 7.7
2014-Oct-17 18:31N 48°03' W 122°39'9 8.1
2014-Oct-17 17:22N 48°11' W 122°47'8 6.8
2014-Oct-17 16:11N 48°19' W 122°47'4 7.0
2014-Oct-17 15:33N 48°23' W 122°45'7 7.0
2014-Oct-17 14:33N 48°30' W 122°45'7 7.4
2014-Oct-17 13:33N 48°37' W 122°45'7 7.0
2014-Oct-17 12:33N 48°44' W 122°47'7 7.2
2014-Oct-17 11:33N 48°48' W 122°56'8 7.4
2014-Oct-17 10:31N 48°53' W 123°05'7 7.2
2014-Oct-17 09:33N 48°57' W 123°13'7 7.0
2014-Oct-17 08:33N 49°02' W 123°21'6 6.1
2014-Oct-17 07:33N 49°08' W 123°24'7 7.0
2014-Oct-17 06:33N 49°15' W 123°21'6 6.5
2014-Oct-17 05:33N 49°19' W 123°14'7 6.9
2014-Oct-17 04:33N 49°18' W 123°04'4 3.5
2014-Oct-17 03:33N 49°18' W 122°58'0 0.0
2014-Oct-17 02:33N 49°18' W 122°58'0 0.0
2014-Oct-17 01:30N 49°18' W 122°58'0 0.0
2014-Oct-17 00:30N 49°18' W 122°58'1 0.8
2014-Oct-16 23:33N 49°17' W 122°57'0 0.0
2014-Oct-16 22:33N 49°17' W 122°57'0 0.0
2014-Oct-16 21:33N 49°17' W 122°57'0 0.0
2014-Oct-16 20:33N 49°17' W 122°57'0 0.0
2014-Oct-16 19:33N 49°17' W 122°57'0 0.0
2014-Oct-16 18:33N 49°17' W 122°57'0 0.0
2014-Oct-16 17:33N 49°17' W 122°57'0 0.0
2014-Oct-16 16:33N 49°17' W 122°57'0 0.0
2014-Oct-16 15:33N 49°17' W 122°57'0 0.0
2014-Oct-16 14:30N 49°17' W 122°57'0 0.0
2014-Oct-16 13:30N 49°17' W 122°57'0 0.0
2014-Oct-16 12:33N 49°17' W 122°57'0 0.0
2014-Oct-16 11:30N 49°17' W 122°57'0 0.0
2014-Oct-16 10:33N 49°17' W 122°57'0 0.0
2014-Oct-16 09:33N 49°17' W 122°57'0 0.0
2014-Oct-16 08:33N 49°17' W 122°57'0 0.0
2014-Oct-16 07:30N 49°17' W 122°57'0 0.1
2014-Oct-16 06:34N 49°18' W 122°57'6 5.6
2014-Oct-16 05:33N 49°18' W 123°06'6 6.1
2014-Oct-16 04:33N 49°18' W 123°15'6 5.6
2014-Oct-16 03:33N 49°13' W 123°19'6 6.2
2014-Oct-16 02:33N 49°07' W 123°20'6 5.8
2014-Oct-16 01:33N 49°02' W 123°17'7 6.6
2014-Oct-16 00:33N 48°58' W 123°09'6 6.5
2014-Oct-15 23:33N 48°53' W 123°02'7 6.6
2014-Oct-15 22:31N 48°47' W 123°01'6 6.6
2014-Oct-15 21:33N 48°43' W 123°09'5 5.3
2014-Oct-15 20:32N 48°39' W 123°14'6 6.5
2014-Oct-15 19:33N 48°33' W 123°12'7 7.0
2014-Oct-15 18:33N 48°26' W 123°10'2 7.7
2014-Oct-15 18:15N 48°24' W 123°10'6 7.0
2014-Oct-15 17:26N 48°18' W 123°12'6 7.0
2014-Oct-15 16:33N 48°13' W 123°18'7 6.9
2014-Oct-15 15:33N 48°08' W 123°25'1 4.2
2014-Oct-15 15:19N 48°08' W 123°26'0 0.1
2014-Oct-15 14:33N 48°08' W 123°26'0 0.0
2014-Oct-15 13:45N 48°08' W 123°26'0 0.0
2014-Oct-15 13:29N 48°08' W 123°26'0 0.0
2014-Oct-15 12:20N 48°08' W 123°26'0 0.0
2014-Oct-15 11:32N 48°08' W 123°26'0 0.0
2014-Oct-15 10:32N 48°08' W 123°26'0 0.0
2014-Oct-15 08:30N 48°08' W 123°26'0 0.0
2014-Oct-15 04:24N 48°08' W 123°26'0 0.0
2014-Oct-15 03:32N 48°08' W 123°26'0 0.0
2014-Oct-15 02:47N 48°08' W 123°26'0 0.0
2014-Oct-15 02:32N 48°08' W 123°26'0 0.0
2014-Oct-15 02:17N 48°08' W 123°26'0 0.0
2014-Oct-15 01:29N 48°08' W 123°26'0 0.0
2014-Oct-15 00:29N 48°08' W 123°26'0 0.0
2014-Oct-14 23:32N 48°08' W 123°26'0 0.0
2014-Oct-14 22:32N 48°08' W 123°26'0 0.0
2014-Oct-14 22:14N 48°08' W 123°26'0 0.0
2014-Oct-14 21:23N 48°08' W 123°26'0 0.0
2014-Oct-14 21:02N 48°08' W 123°26'  

Dump ship's entire track history